createdAt,value
2023-01-31T00:00:38.739Z,2.6
2023-01-31T00:01:48.257Z,2.4
2023-01-31T00:02:55.417Z,2.6
2023-01-31T00:04:02.485Z,2.8
2023-01-31T00:05:09.802Z,2.7
2023-01-31T00:06:17.655Z,2.6
2023-01-31T00:07:30.401Z,2.6
2023-01-31T00:08:37.669Z,2.6
2023-01-31T00:09:44.788Z,2.7
2023-01-31T00:10:51.754Z,2.6
2023-01-31T00:11:59.117Z,2.6
2023-01-31T00:13:06.954Z,2.7
2023-01-31T00:14:15.290Z,2.7
2023-01-31T00:15:22.720Z,2.7
2023-01-31T00:16:31.398Z,2.5
2023-01-31T00:17:38.884Z,2.6
2023-01-31T00:18:46.874Z,2.6
2023-01-31T00:19:54.501Z,2.7
2023-01-31T00:21:01.622Z,2.7
2023-01-31T00:22:14.003Z,2.7
2023-01-31T00:23:20.957Z,2.7
2023-01-31T00:24:29.167Z,2.8
2023-01-31T00:25:36.425Z,2.9
2023-01-31T00:26:44.024Z,2.7
2023-01-31T00:27:52.079Z,2.8
2023-01-31T00:29:00.949Z,2.8
2023-01-31T00:30:09.592Z,2.7
2023-01-31T00:31:17.231Z,2.6
2023-01-31T00:32:24.177Z,2.8
2023-01-31T00:33:31.802Z,2.8
2023-01-31T00:34:39.084Z,2.6
2023-01-31T00:35:47.461Z,2.6
2023-01-31T00:36:54.564Z,2.6
2023-01-31T00:38:02.789Z,2.5
2023-01-31T00:39:10.155Z,2.6
2023-01-31T00:40:17.093Z,2.6
2023-01-31T00:41:24.921Z,2.5
2023-01-31T00:42:32.360Z,2.5
2023-01-31T00:43:42.054Z,2.7
2023-01-31T00:44:49.220Z,2.5
2023-01-31T00:45:57.355Z,2.3
2023-01-31T00:47:04.337Z,2.6
2023-01-31T00:48:11.449Z,2.3
2023-01-31T00:49:18.680Z,2.4
2023-01-31T00:50:26.951Z,2.5
2023-01-31T00:51:34.727Z,2.7
2023-01-31T00:52:42.669Z,2.6
2023-01-31T00:53:50.197Z,2.5
2023-01-31T00:54:58.239Z,2.7
2023-01-31T00:56:06.447Z,2.7
2023-01-31T00:57:14.578Z,2.6
2023-01-31T00:58:21.771Z,2.8
2023-01-31T00:59:29.743Z,2.7
2023-01-31T01:00:37.596Z,2.6
2023-01-31T01:01:44.995Z,2.5
2023-01-31T01:02:52.697Z,2.6
2023-01-31T01:04:00.016Z,2.6
2023-01-31T01:05:08.009Z,2.6
2023-01-31T01:06:16.357Z,2.5
2023-01-31T01:07:23.380Z,2.7
2023-01-31T01:08:32.637Z,2.7
2023-01-31T01:09:40.561Z,2.7
2023-01-31T01:10:48.799Z,2.4
2023-01-31T01:11:57.271Z,2.6
2023-01-31T01:13:04.590Z,2.6
2023-01-31T01:14:12.908Z,2.7
2023-01-31T01:15:21.299Z,2.7
2023-01-31T01:16:28.399Z,2.6
2023-01-31T01:17:38.525Z,2.7
2023-01-31T01:18:47.001Z,2.8
2023-01-31T01:19:54.031Z,2.8
2023-01-31T01:21:01.435Z,2.8
2023-01-31T01:22:10.087Z,2.8
2023-01-31T01:23:20.226Z,2.9
2023-01-31T01:24:28.175Z,3
2023-01-31T01:25:35.240Z,3
2023-01-31T01:26:45.699Z,2.9
2023-01-31T01:27:53.108Z,2.8
2023-01-31T01:29:00.381Z,2.8
2023-01-31T01:30:08.625Z,2.7
2023-01-31T01:31:17.936Z,2.8
2023-01-31T01:32:25.395Z,2.8
2023-01-31T01:33:33.014Z,2.9
2023-01-31T01:34:40.300Z,2.9
2023-01-31T01:35:47.520Z,2.9
2023-01-31T01:36:54.872Z,3
2023-01-31T01:38:02.139Z,3.1
2023-01-31T01:39:10.342Z,3.1
2023-01-31T01:40:17.868Z,2.9
2023-01-31T01:41:27.092Z,3
2023-01-31T01:42:34.967Z,3.1
2023-01-31T01:43:43.369Z,3.1
2023-01-31T01:44:59.737Z,3.2
2023-01-31T01:46:06.940Z,3.2
2023-01-31T01:47:15.059Z,3.2
2023-01-31T01:48:27.790Z,3.1
2023-01-31T01:49:34.614Z,3.1
2023-01-31T01:50:42.859Z,3.1
2023-01-31T01:51:51.252Z,3
2023-01-31T01:52:59.792Z,2.9
2023-01-31T01:54:07.251Z,3
2023-01-31T01:55:14.740Z,3
2023-01-31T01:56:25.293Z,2.7
2023-01-31T01:57:33.638Z,2.7
2023-01-31T01:58:41.027Z,2.8
2023-01-31T01:59:53.217Z,2.9
2023-01-31T02:01:09.711Z,2.8
2023-01-31T02:02:17.179Z,3
2023-01-31T02:03:24.205Z,3
2023-01-31T02:04:31.620Z,2.8
2023-01-31T02:05:38.707Z,2.9
2023-01-31T02:06:52.440Z,3.1
2023-01-31T02:07:59.356Z,3.2
2023-01-31T02:09:07.312Z,3.2
2023-01-31T02:10:15.472Z,3
2023-01-31T02:11:22.726Z,2.9
2023-01-31T02:12:31.126Z,2.7
2023-01-31T02:13:39.843Z,2.9
2023-01-31T02:14:47.113Z,2.9
2023-01-31T02:15:54.432Z,2.8
2023-01-31T02:17:01.412Z,2.8
2023-01-31T02:18:08.525Z,2.8
2023-01-31T02:19:16.701Z,2.8
2023-01-31T02:20:24.201Z,3
2023-01-31T02:21:42.528Z,3.1
2023-01-31T02:22:54.860Z,3.1
2023-01-31T02:24:05.152Z,3.1
2023-01-31T02:25:18.738Z,3.1
2023-01-31T02:26:33.557Z,3.1
2023-01-31T02:27:52.199Z,3.2
2023-01-31T02:29:05.083Z,3.1
2023-01-31T02:30:22.951Z,3.1
2023-01-31T02:31:40.978Z,2.8
2023-01-31T02:32:54.227Z,3
2023-01-31T02:34:09.035Z,3
2023-01-31T02:35:23.493Z,3.1
2023-01-31T02:36:35.582Z,3.1
2023-01-31T02:37:52.517Z,3
2023-01-31T02:39:05.100Z,3
2023-01-31T02:40:15.188Z,3
2023-01-31T02:41:33.078Z,3.1
2023-01-31T02:42:51.776Z,3.1
2023-01-31T02:44:06.944Z,3
2023-01-31T02:45:30.719Z,3.1
2023-01-31T02:46:48.331Z,3
2023-01-31T02:48:03.620Z,2.9
2023-01-31T02:49:15.812Z,3
2023-01-31T02:50:26.046Z,3.1
2023-01-31T02:51:33.940Z,2.9
2023-01-31T02:52:42.202Z,2.9
2023-01-31T02:53:54.507Z,2.9
2023-01-31T02:55:09.983Z,2.9
2023-01-31T02:56:22.403Z,3.2
2023-01-31T02:57:34.283Z,3.1
2023-01-31T02:58:41.435Z,3
2023-01-31T02:59:51.383Z,3
2023-01-31T03:00:59.156Z,3
2023-01-31T03:02:06.989Z,2.9
2023-01-31T03:03:15.888Z,3
2023-01-31T03:04:25.724Z,3.1
2023-01-31T03:05:36.630Z,3.2
2023-01-31T03:06:44.744Z,3.1
2023-01-31T03:07:57.224Z,3.1
2023-01-31T03:09:04.740Z,3.2
2023-01-31T03:10:12.091Z,2.9
2023-01-31T03:11:24.292Z,3
2023-01-31T03:12:31.432Z,3.2
2023-01-31T03:13:49.143Z,3.1
2023-01-31T03:14:59.288Z,3
2023-01-31T03:16:09.877Z,3.2
2023-01-31T03:17:22.471Z,3
2023-01-31T03:18:45.695Z,2.9
2023-01-31T03:19:53.282Z,3
2023-01-31T03:21:05.928Z,3.2
2023-01-31T03:22:13.331Z,3.3
2023-01-31T03:23:21.623Z,3.1
2023-01-31T03:24:30.240Z,2.8
2023-01-31T03:25:37.558Z,2.9
2023-01-31T03:26:46.602Z,3
2023-01-31T03:27:53.949Z,2.9
2023-01-31T03:29:01.028Z,2.8
2023-01-31T03:30:08.500Z,3.1
2023-01-31T03:31:17.406Z,3.3
2023-01-31T03:32:27.206Z,3.1
2023-01-31T03:33:36.621Z,2.9
2023-01-31T03:34:44.226Z,3.1
2023-01-31T03:35:51.325Z,3
2023-01-31T03:37:07.367Z,3
2023-01-31T03:38:20.969Z,3.1
2023-01-31T03:39:31.042Z,2.9
2023-01-31T03:40:42.157Z,3
2023-01-31T03:41:52.300Z,2.7
2023-01-31T03:43:04.757Z,2.9
2023-01-31T03:44:18.191Z,2.7
2023-01-31T03:45:30.381Z,2.7
2023-01-31T03:46:46.831Z,2.9
2023-01-31T03:47:54.419Z,2.8
2023-01-31T03:49:01.593Z,2.8
2023-01-31T03:50:08.839Z,2.8
2023-01-31T03:51:17.337Z,2.6
2023-01-31T03:52:24.231Z,2.7
2023-01-31T03:53:35.095Z,2.8
2023-01-31T03:54:43.338Z,2.8
2023-01-31T03:55:52.333Z,2.8
2023-01-31T03:57:03.084Z,2.8
2023-01-31T03:58:10.298Z,2.7
2023-01-31T03:59:17.397Z,2.6
2023-01-31T04:00:25.775Z,2.5
2023-01-31T04:01:32.829Z,2.7
2023-01-31T04:02:41.399Z,2.7
2023-01-31T04:03:48.423Z,2.6
2023-01-31T04:04:55.787Z,2.3
2023-01-31T04:06:02.729Z,2.5
2023-01-31T04:07:09.920Z,2.5
2023-01-31T04:08:17.104Z,2.4
2023-01-31T04:09:24.191Z,2.5
2023-01-31T04:10:32.243Z,2.3
2023-01-31T04:11:40.500Z,2.3
2023-01-31T04:12:47.604Z,2.3
2023-01-31T04:13:55.852Z,2.3
2023-01-31T04:15:04.086Z,2.4
2023-01-31T04:16:12.511Z,2.4
2023-01-31T04:17:19.715Z,2.2
2023-01-31T04:18:27.786Z,2.1
2023-01-31T04:19:34.968Z,2.3
2023-01-31T04:20:42.717Z,2.2
2023-01-31T04:21:49.759Z,2.2
2023-01-31T04:22:57.439Z,2.3
2023-01-31T04:24:04.636Z,2.3
2023-01-31T04:25:12.610Z,2.3
2023-01-31T04:26:19.832Z,2.3
2023-01-31T04:27:27.471Z,2.3
2023-01-31T04:28:34.863Z,2.4
2023-01-31T04:29:41.736Z,2.4
2023-01-31T04:30:48.789Z,2.6
2023-01-31T04:31:58.735Z,2.4
2023-01-31T04:33:06.507Z,2.4
2023-01-31T04:34:13.701Z,2.5
2023-01-31T04:35:22.012Z,2.5
2023-01-31T04:36:28.617Z,2.5
2023-01-31T04:37:35.824Z,2.5
2023-01-31T04:38:42.955Z,2.5
2023-01-31T04:39:50.511Z,2.5
2023-01-31T04:40:57.488Z,2.4
2023-01-31T04:42:04.763Z,2.4
2023-01-31T04:43:12.287Z,2.4
2023-01-31T04:44:18.960Z,2.5
2023-01-31T04:45:26.023Z,2.6
2023-01-31T04:46:33.469Z,2.7
2023-01-31T04:47:40.478Z,2.8
2023-01-31T04:48:47.998Z,2.8
2023-01-31T04:49:56.878Z,2.6
2023-01-31T04:51:04.478Z,2.5
2023-01-31T04:52:12.125Z,2.6
2023-01-31T04:53:19.137Z,2.8
2023-01-31T04:54:26.394Z,2.8
2023-01-31T04:55:34.192Z,2.8
2023-01-31T04:56:42.683Z,2.8
2023-01-31T04:57:50.027Z,2.8
2023-01-31T04:58:57.340Z,2.6
2023-01-31T05:00:04.452Z,2.6
2023-01-31T05:01:11.955Z,2.8
2023-01-31T05:02:19.563Z,2.7
2023-01-31T05:03:27.560Z,2.7
2023-01-31T05:04:34.896Z,2.7
2023-01-31T05:05:42.454Z,2.7
2023-01-31T05:06:53.184Z,2.5
2023-01-31T05:08:00.492Z,2.4
2023-01-31T05:09:07.994Z,2.5
2023-01-31T05:10:16.358Z,2.5
2023-01-31T05:11:24.110Z,2.7
2023-01-31T05:12:32.706Z,2.7
2023-01-31T05:13:39.992Z,2.7
2023-01-31T05:14:47.893Z,2.7
2023-01-31T05:15:55.637Z,2.8
2023-01-31T05:17:03.247Z,2.8
2023-01-31T05:18:11.518Z,2.7
2023-01-31T05:19:19.555Z,2.5
2023-01-31T05:20:27.508Z,2.6
2023-01-31T05:21:34.940Z,2.4
2023-01-31T05:22:43.586Z,2.6
2023-01-31T05:23:52.822Z,2.6
2023-01-31T05:24:59.865Z,2.7
2023-01-31T05:26:07.104Z,2.7
2023-01-31T05:27:14.186Z,2.5
2023-01-31T05:28:22.220Z,2.5
2023-01-31T05:29:30.362Z,2.2
2023-01-31T05:30:37.766Z,2.6
2023-01-31T05:31:46.074Z,2.7
2023-01-31T05:32:58.782Z,2.7
2023-01-31T05:34:06.369Z,2.9
2023-01-31T05:35:13.848Z,2.8
2023-01-31T05:36:20.795Z,2.8
2023-01-31T05:37:28.745Z,2.6
2023-01-31T05:38:36.912Z,2.7
2023-01-31T05:39:43.448Z,2.8
2023-01-31T05:40:52.790Z,3
2023-01-31T05:41:59.899Z,3
2023-01-31T05:43:07.045Z,2.9
2023-01-31T05:44:14.246Z,2.7
2023-01-31T05:45:21.669Z,2.9
2023-01-31T05:46:28.563Z,2.7
2023-01-31T05:47:35.731Z,2.6
2023-01-31T05:48:44.700Z,2.7
2023-01-31T05:49:51.865Z,2.8
2023-01-31T05:51:00.808Z,2.7
2023-01-31T05:52:08.948Z,2.6
2023-01-31T05:53:16.343Z,2.8
2023-01-31T05:54:23.503Z,2.9
2023-01-31T05:55:32.335Z,2.8
2023-01-31T05:56:40.426Z,2.8
2023-01-31T05:57:47.311Z,2.8
2023-01-31T05:58:54.823Z,2.7
2023-01-31T06:00:03.362Z,2.7
2023-01-31T06:01:11.002Z,2.6
2023-01-31T06:02:18.218Z,2.5
2023-01-31T06:03:25.220Z,2.4
2023-01-31T06:04:33.472Z,2.7
2023-01-31T06:05:41.194Z,2.9
2023-01-31T06:06:48.434Z,2.9
2023-01-31T06:07:55.600Z,2.9
2023-01-31T06:09:03.575Z,3
2023-01-31T06:10:28.394Z,3
2023-01-31T06:11:36.235Z,2.8
2023-01-31T06:12:43.913Z,2.8
2023-01-31T06:13:51.247Z,2.8
2023-01-31T06:14:58.713Z,2.9
2023-01-31T06:16:05.879Z,2.9
2023-01-31T06:17:13.331Z,2.9
2023-01-31T06:18:21.803Z,2.9
2023-01-31T06:19:29.819Z,2.7
2023-01-31T06:20:37.275Z,2.5
2023-01-31T06:21:47.067Z,2.7
2023-01-31T06:22:54.188Z,2.7
2023-01-31T06:24:02.664Z,2.6
2023-01-31T06:25:11.014Z,2.7
2023-01-31T06:26:18.499Z,2.5
2023-01-31T06:27:27.685Z,2.6
2023-01-31T06:28:36.891Z,2.5
2023-01-31T06:29:45.380Z,2.3
2023-01-31T06:30:52.788Z,2.5
2023-01-31T06:32:00.098Z,2.5
2023-01-31T06:33:07.738Z,2.7
2023-01-31T06:34:15.298Z,2.8
2023-01-31T06:35:23.407Z,2.8
2023-01-31T06:36:32.125Z,2.6
2023-01-31T06:37:40.072Z,2.7
2023-01-31T06:38:49.331Z,2.8
2023-01-31T06:39:58.019Z,2.7
2023-01-31T06:41:05.406Z,2.6
2023-01-31T06:42:14.508Z,2.7
2023-01-31T06:43:22.332Z,2.8
2023-01-31T06:44:32.949Z,3
2023-01-31T06:45:42.132Z,2.9
2023-01-31T06:46:51.147Z,2.9
2023-01-31T06:48:00.761Z,2.6
2023-01-31T06:49:09.148Z,2.9
2023-01-31T06:50:17.220Z,2.8
2023-01-31T06:51:24.429Z,2.8
2023-01-31T06:52:33.713Z,2.9
2023-01-31T06:53:41.885Z,3
2023-01-31T06:54:50.443Z,2.8
2023-01-31T06:55:57.684Z,2.7
2023-01-31T06:57:05.745Z,2.7
2023-01-31T06:58:13.691Z,2.7
2023-01-31T06:59:21.057Z,2.7
2023-01-31T07:00:30.570Z,2.8
2023-01-31T07:01:37.803Z,2.8
2023-01-31T07:02:46.490Z,2.9
2023-01-31T07:03:54.337Z,2.8
2023-01-31T07:05:01.865Z,2.5
2023-01-31T07:06:09.725Z,2.7
2023-01-31T07:07:19.818Z,2.6
2023-01-31T07:08:28.353Z,2.6
2023-01-31T07:09:36.289Z,2.6
2023-01-31T07:10:44.577Z,2.8
2023-01-31T07:11:52.133Z,2.6
2023-01-31T07:12:58.878Z,2.6
2023-01-31T07:14:07.218Z,2.7
2023-01-31T07:15:16.235Z,2.6
2023-01-31T07:16:24.743Z,2.7
2023-01-31T07:17:32.973Z,2.7
2023-01-31T07:18:42.005Z,2.7
2023-01-31T07:19:49.386Z,2.6
2023-01-31T07:20:56.550Z,2.8
2023-01-31T07:22:04.930Z,2.9
2023-01-31T07:23:12.243Z,2.9
2023-01-31T07:24:20.859Z,2.6
2023-01-31T07:25:29.964Z,2.6
2023-01-31T07:26:37.368Z,2.6
2023-01-31T07:27:45.743Z,2.6
2023-01-31T07:28:54.216Z,2.8
2023-01-31T07:30:01.685Z,2.7
2023-01-31T07:31:09.017Z,2.8
2023-01-31T07:32:16.332Z,2.7
2023-01-31T07:33:24.643Z,2.8
2023-01-31T07:34:32.260Z,2.7
2023-01-31T07:35:39.987Z,2.9
2023-01-31T07:36:47.875Z,3
2023-01-31T07:37:56.150Z,2.6
2023-01-31T07:39:04.316Z,2.7
2023-01-31T07:40:11.704Z,2.8
2023-01-31T07:41:19.507Z,2.7
2023-01-31T07:42:28.571Z,2.5
2023-01-31T07:43:35.964Z,2.6
2023-01-31T07:44:43.103Z,2.5
2023-01-31T07:45:50.268Z,2.5
2023-01-31T07:46:57.414Z,2.5
2023-01-31T07:48:04.851Z,2.7
2023-01-31T07:49:14.139Z,2.8
2023-01-31T07:50:22.927Z,3.1
2023-01-31T07:51:29.950Z,3
2023-01-31T07:52:37.127Z,3
2023-01-31T07:53:44.942Z,3
2023-01-31T07:54:52.970Z,3.1
2023-01-31T07:56:01.744Z,2.9
2023-01-31T07:57:17.147Z,2.9
2023-01-31T07:58:25.483Z,2.9
2023-01-31T07:59:33.153Z,2.8
2023-01-31T08:00:40.467Z,2.8
2023-01-31T08:01:54.089Z,3
2023-01-31T08:03:07.269Z,3
2023-01-31T08:04:25.044Z,2.8
2023-01-31T08:05:33.030Z,3
2023-01-31T08:06:39.974Z,2.9
2023-01-31T08:07:48.804Z,2.9
2023-01-31T08:08:55.929Z,3
2023-01-31T08:10:03.037Z,2.9
2023-01-31T08:11:11.381Z,3
2023-01-31T08:12:20.778Z,3.1
2023-01-31T08:13:27.978Z,2.9
2023-01-31T08:14:36.014Z,2.7
2023-01-31T08:15:44.639Z,3
2023-01-31T08:16:52.838Z,3
2023-01-31T08:18:00.339Z,3.2
2023-01-31T08:19:07.992Z,3.1
2023-01-31T08:20:16.420Z,3
2023-01-31T08:21:23.474Z,2.9
2023-01-31T08:22:31.770Z,3
2023-01-31T08:23:38.807Z,3
2023-01-31T08:24:45.851Z,2.9
2023-01-31T08:25:52.897Z,3.1
2023-01-31T08:27:03.069Z,3.1
2023-01-31T08:28:10.280Z,3.2
2023-01-31T08:29:17.413Z,3.1
2023-01-31T08:30:25.434Z,3
2023-01-31T08:31:32.857Z,3
2023-01-31T08:32:41.305Z,3
2023-01-31T08:33:48.631Z,2.9
2023-01-31T08:34:56.492Z,2.8
2023-01-31T08:36:05.048Z,2.8
2023-01-31T08:37:18.661Z,2.9
2023-01-31T08:38:26.283Z,2.9
2023-01-31T08:39:33.569Z,3
2023-01-31T08:40:40.884Z,2.9
2023-01-31T08:41:48.971Z,2.7
2023-01-31T08:42:56.507Z,2.9
2023-01-31T08:44:04.797Z,2.8
2023-01-31T08:45:12.046Z,2.8
2023-01-31T08:46:20.039Z,2.6
2023-01-31T08:47:30.744Z,2.8
2023-01-31T08:48:39.048Z,2.9
2023-01-31T08:49:46.802Z,3
2023-01-31T08:50:54.107Z,3
2023-01-31T08:52:01.483Z,3.1
2023-01-31T08:53:08.815Z,3
2023-01-31T08:54:17.155Z,2.9
2023-01-31T08:55:24.359Z,2.9
2023-01-31T08:56:31.641Z,3.1
2023-01-31T08:57:49.087Z,3.1
2023-01-31T08:58:49.831Z,3.1
2023-01-31T08:59:57.575Z,3.1
2023-01-31T09:01:04.955Z,3.2
2023-01-31T09:02:16.053Z,3.2
2023-01-31T09:03:24.375Z,3.2
2023-01-31T09:04:31.692Z,3.1
2023-01-31T09:05:40.087Z,3
2023-01-31T09:06:47.498Z,3
2023-01-31T09:07:56.166Z,2.8
2023-01-31T09:09:05.275Z,3.1
2023-01-31T09:10:13.838Z,3.1
2023-01-31T09:11:23.902Z,2.9
2023-01-31T09:12:31.287Z,3.1
2023-01-31T09:13:39.259Z,3
2023-01-31T09:14:46.249Z,3
2023-01-31T09:15:54.311Z,3.2
2023-01-31T09:17:01.682Z,3.2
2023-01-31T09:18:08.814Z,3
2023-01-31T09:19:16.218Z,3
2023-01-31T09:20:28.759Z,3
2023-01-31T09:21:38.589Z,2.8
2023-01-31T09:22:47.784Z,3
2023-01-31T09:23:56.252Z,3
2023-01-31T09:25:03.747Z,3.1
2023-01-31T09:26:13.031Z,3.1
2023-01-31T09:27:20.038Z,3.1
2023-01-31T09:28:28.779Z,3.2
2023-01-31T09:29:35.761Z,2.7
2023-01-31T09:30:43.020Z,2.9
2023-01-31T09:31:50.147Z,3.1
2023-01-31T09:32:58.186Z,3.1
2023-01-31T09:34:06.740Z,3
2023-01-31T09:35:14.432Z,2.8
2023-01-31T09:36:22.241Z,2.9
2023-01-31T09:37:29.612Z,3
2023-01-31T09:38:38.030Z,2.9
2023-01-31T09:39:45.918Z,2.9
2023-01-31T09:40:53.703Z,2.8
2023-01-31T09:42:01.737Z,2.9
2023-01-31T09:43:19.354Z,2.8
2023-01-31T09:44:29.602Z,2.9
2023-01-31T09:45:37.173Z,2.8
2023-01-31T09:46:45.016Z,2.8
2023-01-31T09:47:57.198Z,2.8
2023-01-31T09:49:04.593Z,2.8
2023-01-31T09:50:13.496Z,2.7
2023-01-31T09:51:25.765Z,2.8
2023-01-31T09:52:33.260Z,3
2023-01-31T09:53:41.026Z,2.9
2023-01-31T09:54:50.265Z,2.9
2023-01-31T09:55:59.369Z,2.8
2023-01-31T09:57:17.085Z,3
2023-01-31T09:58:24.670Z,3.2
2023-01-31T09:59:32.299Z,3.1
2023-01-31T10:00:47.029Z,3
2023-01-31T10:01:57.533Z,3.2
2023-01-31T10:03:08.264Z,3.1
2023-01-31T10:04:22.882Z,3
2023-01-31T10:05:39.212Z,3
2023-01-31T10:06:48.346Z,3.2
2023-01-31T10:08:04.714Z,3
2023-01-31T10:09:16.842Z,3
2023-01-31T10:10:24.371Z,3.2
2023-01-31T10:11:38.436Z,3.3
2023-01-31T10:12:52.833Z,3.5
2023-01-31T10:14:02.873Z,3.6
2023-01-31T10:15:21.769Z,3.4
2023-01-31T10:16:36.960Z,3.5
2023-01-31T10:17:52.294Z,3.4
2023-01-31T10:19:01.369Z,3.4
2023-01-31T10:20:13.444Z,3.3
2023-01-31T10:21:24.274Z,3.4
2023-01-31T10:22:41.381Z,3.5
2023-01-31T10:23:54.804Z,3.4
2023-01-31T10:25:02.865Z,3.2
2023-01-31T10:26:15.903Z,3.4
2023-01-31T10:27:25.231Z,3.2
2023-01-31T10:28:34.387Z,3.4
2023-01-31T10:29:51.614Z,3.3
2023-01-31T10:30:59.100Z,3.3
2023-01-31T10:32:10.170Z,3.5
2023-01-31T10:33:25.503Z,3.7
2023-01-31T10:34:41.051Z,3.6
2023-01-31T10:35:49.256Z,3.5
2023-01-31T10:36:57.324Z,3.3
2023-01-31T10:38:14.816Z,3.3
2023-01-31T10:39:26.478Z,3.4
2023-01-31T10:40:47.349Z,3.5
2023-01-31T10:41:59.817Z,3.5
2023-01-31T10:43:16.274Z,3.5
2023-01-31T10:44:26.301Z,3.5
2023-01-31T10:45:33.923Z,3.5
2023-01-31T10:46:41.720Z,3.4
2023-01-31T10:47:50.111Z,3.5
2023-01-31T10:48:59.125Z,3.5
2023-01-31T10:50:07.610Z,3.6
2023-01-31T10:51:18.120Z,3.5
2023-01-31T10:52:34.699Z,3.5
2023-01-31T10:53:48.475Z,3.5
2023-01-31T10:55:04.140Z,3.6
2023-01-31T10:56:23.416Z,3.5
2023-01-31T10:57:36.454Z,3.3
2023-01-31T10:58:44.250Z,3.4
2023-01-31T10:59:54.105Z,3.5
2023-01-31T11:01:02.178Z,3.5
2023-01-31T11:02:11.402Z,3.5
2023-01-31T11:03:24.803Z,3.6
2023-01-31T11:04:32.631Z,3.6
2023-01-31T11:05:40.181Z,3.6
2023-01-31T11:06:52.868Z,3.7
2023-01-31T11:08:02.888Z,3.5
2023-01-31T11:09:12.214Z,3.7
2023-01-31T11:10:21.061Z,3.8
2023-01-31T11:11:34.956Z,3.7
2023-01-31T11:12:42.714Z,3.8
2023-01-31T11:13:55.145Z,3.9
2023-01-31T11:15:10.361Z,3.8
2023-01-31T11:16:21.587Z,3.8
2023-01-31T11:17:29.095Z,3.9
2023-01-31T11:18:38.626Z,3.8
2023-01-31T11:19:46.241Z,3.8
2023-01-31T11:20:58.370Z,3.7
2023-01-31T11:22:05.535Z,3.6
2023-01-31T11:23:13.756Z,3.7
2023-01-31T11:24:20.705Z,3.7
2023-01-31T11:25:29.014Z,3.7
2023-01-31T11:26:36.950Z,3.7
2023-01-31T11:27:44.432Z,3.5
2023-01-31T11:28:52.798Z,3.5
2023-01-31T11:30:01.849Z,3.5
2023-01-31T11:31:11.129Z,3.8
2023-01-31T11:32:22.407Z,3.8
2023-01-31T11:33:30.649Z,3.9
2023-01-31T11:34:45.397Z,3.9
2023-01-31T11:35:58.117Z,3.8
2023-01-31T11:37:05.574Z,3.8
2023-01-31T11:38:22.098Z,4
2023-01-31T11:39:31.222Z,3.7
2023-01-31T11:40:38.946Z,3.7
2023-01-31T11:41:47.411Z,3.9
2023-01-31T11:42:55.155Z,3.7
2023-01-31T11:44:06.906Z,3.7
2023-01-31T11:45:15.310Z,3.9
2023-01-31T11:46:23.670Z,3.8
2023-01-31T11:47:32.977Z,4.1
2023-01-31T11:48:51.022Z,4.1
2023-01-31T11:49:59.098Z,4
2023-01-31T11:51:07.405Z,4.2
2023-01-31T11:52:16.783Z,4.1
2023-01-31T11:53:24.077Z,4.1
2023-01-31T11:54:36.409Z,4.3
2023-01-31T11:55:44.367Z,4.6
2023-01-31T11:56:55.706Z,4.6
2023-01-31T11:58:02.082Z,4.5
2023-01-31T11:59:14.682Z,4.3
2023-01-31T12:00:23.712Z,4.2
2023-01-31T12:01:30.677Z,4.2
2023-01-31T12:02:40.149Z,4.3
2023-01-31T12:04:01.114Z,4.1
2023-01-31T12:05:05.638Z,4.3
2023-01-31T12:06:16.513Z,3.9
2023-01-31T12:07:28.868Z,4
2023-01-31T12:08:36.791Z,3.9
2023-01-31T12:09:47.661Z,3.8
2023-01-31T12:10:55.334Z,4.1
2023-01-31T12:12:05.317Z,4.3
2023-01-31T12:13:18.426Z,4.3
2023-01-31T12:14:22.145Z,4.4
2023-01-31T12:15:36.942Z,4.4
2023-01-31T12:16:45.890Z,4.5
2023-01-31T12:17:54.378Z,4.6
2023-01-31T12:19:02.743Z,4.5
2023-01-31T12:20:27.378Z,4.5
2023-01-31T12:21:34.296Z,4.1
2023-01-31T12:22:52.552Z,4.1
2023-01-31T12:24:10.975Z,4.3
2023-01-31T12:25:25.612Z,4.3
2023-01-31T12:26:32.908Z,4.4
2023-01-31T12:27:51.869Z,4.3
2023-01-31T12:29:11.659Z,4.4
2023-01-31T12:30:20.724Z,4.3
2023-01-31T12:31:37.618Z,4.2
2023-01-31T12:32:57.164Z,4.2
2023-01-31T12:34:15.385Z,4.2
2023-01-31T12:35:33.761Z,4.2
2023-01-31T12:36:47.525Z,4.2
2023-01-31T12:38:03.738Z,4.2
2023-01-31T12:39:22.140Z,4.1
2023-01-31T12:40:39.949Z,4.3
2023-01-31T12:41:47.325Z,4.3
2023-01-31T12:42:59.146Z,4.3
2023-01-31T12:44:07.620Z,4.1
2023-01-31T12:45:26.695Z,4.3
2023-01-31T12:46:42.953Z,4.4
2023-01-31T12:48:00.558Z,4.5
2023-01-31T12:49:17.340Z,4.5
2023-01-31T12:50:35.220Z,4.5
2023-01-31T12:51:43.076Z,4.5
2023-01-31T12:52:56.253Z,4.5
2023-01-31T12:54:16.300Z,4.3
2023-01-31T12:55:29.463Z,4.1
2023-01-31T12:56:41.699Z,4.1
2023-01-31T12:58:04.220Z,4.1
2023-01-31T12:59:16.171Z,4.1
2023-01-31T13:00:31.258Z,4.2
2023-01-31T13:01:46.568Z,4.4
2023-01-31T13:03:02.983Z,4.2
2023-01-31T13:04:17.844Z,4.1
2023-01-31T13:05:33.205Z,4
2023-01-31T13:06:42.929Z,4.2
2023-01-31T13:07:51.271Z,4.3
2023-01-31T13:09:08.592Z,4.3
2023-01-31T13:10:15.392Z,4.3
2023-01-31T13:11:28.792Z,4.2
2023-01-31T13:12:41.399Z,4.2
2023-01-31T13:13:50.655Z,4.3
2023-01-31T13:15:03.006Z,4.1
2023-01-31T13:16:11.894Z,4.1
2023-01-31T13:17:24.738Z,4.1
2023-01-31T13:18:32.946Z,4.3
2023-01-31T13:19:41.547Z,4.3
2023-01-31T13:21:00.374Z,4.2
2023-01-31T13:22:08.038Z,4.1
2023-01-31T13:23:16.391Z,4.2
2023-01-31T13:24:26.127Z,4.2
2023-01-31T13:25:43.582Z,4.2
2023-01-31T13:26:51.534Z,4.3
2023-01-31T13:28:02.654Z,4.2
2023-01-31T13:29:18.314Z,4.3
2023-01-31T13:30:27.126Z,3.9
2023-01-31T13:31:43.481Z,4
2023-01-31T13:32:51.855Z,3.9
2023-01-31T13:33:59.280Z,4.1
2023-01-31T13:35:14.295Z,3.8
2023-01-31T13:36:21.684Z,3.9
2023-01-31T13:37:40.263Z,4.1
2023-01-31T13:38:48.942Z,4.1
2023-01-31T13:39:57.955Z,4
2023-01-31T13:41:06.456Z,3.8
2023-01-31T13:42:17.376Z,3.9
2023-01-31T13:43:26.691Z,3.9
2023-01-31T13:44:34.542Z,3.9
2023-01-31T13:45:42.954Z,3.9
2023-01-31T13:46:53.216Z,3.9
2023-01-31T13:48:00.429Z,4.2
2023-01-31T13:49:09.257Z,3.9
2023-01-31T13:50:22.888Z,3.5
2023-01-31T13:51:33.540Z,3.8
2023-01-31T13:52:50.193Z,3.9
2023-01-31T13:53:57.001Z,3.7
2023-01-31T13:55:09.339Z,3.7
2023-01-31T13:56:20.825Z,3.8
2023-01-31T13:57:35.467Z,3.7
2023-01-31T13:58:45.926Z,3.8
2023-01-31T13:59:54.266Z,3.7
2023-01-31T14:01:11.140Z,3.8
2023-01-31T14:02:23.849Z,4.1
2023-01-31T14:03:32.236Z,4
2023-01-31T14:04:50.789Z,3.2
2023-01-31T14:05:59.183Z,3.1
2023-01-31T14:07:08.117Z,3.1
2023-01-31T14:08:22.193Z,3.2
2023-01-31T14:09:35.910Z,3.1
2023-01-31T14:10:46.704Z,3.1
2023-01-31T14:11:53.637Z,3.1
2023-01-31T14:13:04.233Z,3.1
2023-01-31T14:14:17.605Z,3.1
2023-01-31T14:15:25.251Z,3.1
2023-01-31T14:16:41.533Z,3.1
2023-01-31T14:17:51.020Z,3.1
2023-01-31T14:19:00.578Z,3.1
2023-01-31T14:20:09.114Z,3.2
2023-01-31T14:21:28.930Z,3.3
2023-01-31T14:22:40.189Z,3
2023-01-31T14:23:49.177Z,3.1
2023-01-31T14:24:56.441Z,3.1
2023-01-31T14:26:07.538Z,3.2
2023-01-31T14:27:24.788Z,3.2
2023-01-31T14:28:37.911Z,3.2
2023-01-31T14:29:45.586Z,3.1
2023-01-31T14:30:58.685Z,3
2023-01-31T14:32:07.247Z,3.2
2023-01-31T14:33:21.214Z,3.1
2023-01-31T14:34:32.989Z,3.1
2023-01-31T14:35:41.768Z,3.2
2023-01-31T14:36:57.085Z,3.2
2023-01-31T14:38:10.430Z,3.1
2023-01-31T14:39:22.767Z,3
2023-01-31T14:40:40.669Z,2.9
2023-01-31T14:41:56.832Z,3
2023-01-31T14:43:11.143Z,2.7
2023-01-31T14:44:24.157Z,2.8
2023-01-31T14:45:44.184Z,2.8
2023-01-31T14:47:04.356Z,2.7
2023-01-31T14:48:17.849Z,2.7
2023-01-31T14:49:36.276Z,2.5
2023-01-31T14:50:54.351Z,2.6
2023-01-31T14:52:04.595Z,2.5
2023-01-31T14:53:20.936Z,2.5
2023-01-31T14:54:37.896Z,2.6
2023-01-31T14:55:50.410Z,2.5
2023-01-31T14:57:09.114Z,2.4
2023-01-31T14:58:16.904Z,2.4
2023-01-31T14:59:24.948Z,2.4
2023-01-31T15:00:37.650Z,2.4
2023-01-31T15:01:45.271Z,2.5
2023-01-31T15:02:53.918Z,2.6
2023-01-31T15:04:10.592Z,2.6
2023-01-31T15:05:18.724Z,2.6
2023-01-31T15:06:32.290Z,2.6
2023-01-31T15:07:41.473Z,2.6
2023-01-31T15:08:59.974Z,2.6
2023-01-31T15:10:19.251Z,2.6
2023-01-31T15:11:41.740Z,2.6
2023-01-31T15:12:41.867Z,2.6
2023-01-31T15:14:01.414Z,2.6
2023-01-31T15:15:20.417Z,2.6
2023-01-31T15:16:37.184Z,2.6
2023-01-31T15:17:45.354Z,2.6
2023-01-31T15:18:54.298Z,2.6
2023-01-31T15:20:02.632Z,2.6
2023-01-31T15:21:19.422Z,2.6
2023-01-31T15:22:26.842Z,2.6
2023-01-31T15:23:35.393Z,2.6
2023-01-31T15:24:42.907Z,2.6
2023-01-31T15:25:50.116Z,2.4
2023-01-31T15:26:58.554Z,2.3
2023-01-31T15:28:06.839Z,2.2
2023-01-31T15:29:14.614Z,2.2
2023-01-31T15:30:28.461Z,2.2
2023-01-31T15:31:37.906Z,2.3
2023-01-31T15:32:46.905Z,2.3
2023-01-31T15:33:58.405Z,2.3
2023-01-31T15:35:06.799Z,2.2
2023-01-31T15:36:19.341Z,2.3
2023-01-31T15:37:26.834Z,2.2
2023-01-31T15:38:34.557Z,2.2
2023-01-31T15:39:42.878Z,2.2
2023-01-31T15:40:50.806Z,2.2
2023-01-31T15:42:12.088Z,2.3
2023-01-31T15:43:29.435Z,2.3
2023-01-31T15:44:39.333Z,2.3
2023-01-31T15:45:47.970Z,2.2
2023-01-31T15:46:55.727Z,2.1
2023-01-31T15:48:05.373Z,2.2
2023-01-31T15:49:25.759Z,2.1
2023-01-31T15:50:30.703Z,2.2
2023-01-31T15:51:39.720Z,2.1
2023-01-31T15:52:46.749Z,2.1
2023-01-31T15:53:53.738Z,2.2
2023-01-31T15:55:04.385Z,2.2
2023-01-31T15:56:11.993Z,2.1
2023-01-31T15:57:26.474Z,2.1
2023-01-31T15:58:39.502Z,2.2
2023-01-31T15:59:50.026Z,2.2
2023-01-31T16:00:58.100Z,2.2
2023-01-31T16:02:06.487Z,2.1
2023-01-31T16:03:15.381Z,2.1
2023-01-31T16:04:24.672Z,2.2
2023-01-31T16:05:32.929Z,2.1
2023-01-31T16:06:44.774Z,2.2
2023-01-31T16:07:53.044Z,2.1
2023-01-31T16:09:06.299Z,2.1